sensor_id;sensor_type;location;lat;lon;timestamp;temperature;humidity
17599;DHT22;8918;52.092;5.232;2023-07-31T00:00:12;15.70;99.90
17599;DHT22;8918;52.092;5.232;2023-07-31T00:02:38;15.70;99.90
17599;DHT22;8918;52.092;5.232;2023-07-31T00:05:04;15.70;99.90
17599;DHT22;8918;52.092;5.232;2023-07-31T00:07:31;15.70;99.90
17599;DHT22;8918;52.092;5.232;2023-07-31T00:09:56;15.70;99.90
17599;DHT22;8918;52.092;5.232;2023-07-31T00:12:22;15.70;99.90
17599;DHT22;8918;52.092;5.232;2023-07-31T00:14:48;15.80;99.90
17599;DHT22;8918;52.092;5.232;2023-07-31T00:17:14;15.80;99.90
17599;DHT22;8918;52.092;5.232;2023-07-31T00:19:40;15.90;99.90
17599;DHT22;8918;52.092;5.232;2023-07-31T00:22:06;15.90;99.90
17599;DHT22;8918;52.092;5.232;2023-07-31T00:24:31;15.90;99.90
17599;DHT22;8918;52.092;5.232;2023-07-31T00:26:57;16.00;99.90
17599;DHT22;8918;52.092;5.232;2023-07-31T00:29:22;16.10;99.90
17599;DHT22;8918;52.092;5.232;2023-07-31T00:31:48;16.20;99.90
17599;DHT22;8918;52.092;5.232;2023-07-31T00:34:14;16.30;99.90
17599;DHT22;8918;52.092;5.232;2023-07-31T00:36:39;16.30;99.90
17599;DHT22;8918;52.092;5.232;2023-07-31T00:39:05;16.40;99.90
17599;DHT22;8918;52.092;5.232;2023-07-31T00:41:31;16.50;99.90
17599;DHT22;8918;52.092;5.232;2023-07-31T00:43:56;16.50;99.90
17599;DHT22;8918;52.092;5.232;2023-07-31T00:46:22;16.60;99.90
17599;DHT22;8918;52.092;5.232;2023-07-31T00:48:48;16.60;99.90
17599;DHT22;8918;52.092;5.232;2023-07-31T00:51:14;16.70;99.90
17599;DHT22;8918;52.092;5.232;2023-07-31T00:53:40;16.70;99.90
17599;DHT22;8918;52.092;5.232;2023-07-31T00:56:06;16.70;99.90
17599;DHT22;8918;52.092;5.232;2023-07-31T00:58:32;16.70;99.90
17599;DHT22;8918;52.092;5.232;2023-07-31T01:00:58;16.70;99.90
17599;DHT22;8918;52.092;5.232;2023-07-31T01:03:24;16.80;99.90
17599;DHT22;8918;52.092;5.232;2023-07-31T01:06:03;16.80;99.90
17599;DHT22;8918;52.092;5.232;2023-07-31T01:08:44;16.80;99.90
17599;DHT22;8918;52.092;5.232;2023-07-31T01:11:22;16.80;99.90
17599;DHT22;8918;52.092;5.232;2023-07-31T01:13:48;16.80;99.90
17599;DHT22;8918;52.092;5.232;2023-07-31T01:16:14;16.80;99.90
17599;DHT22;8918;52.092;5.232;2023-07-31T01:18:40;16.80;99.90
17599;DHT22;8918;52.092;5.232;2023-07-31T01:26:44;16.80;99.90
17599;DHT22;8918;52.092;5.232;2023-07-31T01:29:32;16.80;99.90
17599;DHT22;8918;52.092;5.232;2023-07-31T01:32:01;16.70;99.90
17599;DHT22;8918;52.092;5.232;2023-07-31T01:34:28;16.70;99.90
17599;DHT22;8918;52.092;5.232;2023-07-31T01:36:55;16.70;99.90
17599;DHT22;8918;52.092;5.232;2023-07-31T01:39:21;16.80;99.90
17599;DHT22;8918;52.092;5.232;2023-07-31T01:41:46;16.70;99.90
17599;DHT22;8918;52.092;5.232;2023-07-31T01:44:12;16.70;99.90
17599;DHT22;8918;52.092;5.232;2023-07-31T01:46:37;16.70;99.90
17599;DHT22;8918;52.092;5.232;2023-07-31T01:49:03;16.70;99.90
17599;DHT22;8918;52.092;5.232;2023-07-31T01:51:31;16.70;99.90
17599;DHT22;8918;52.092;5.232;2023-07-31T01:54:00;16.70;99.90
17599;DHT22;8918;52.092;5.232;2023-07-31T01:56:25;16.70;99.90
17599;DHT22;8918;52.092;5.232;2023-07-31T01:58:51;16.70;99.90
17599;DHT22;8918;52.092;5.232;2023-07-31T02:01:16;16.70;99.90
17599;DHT22;8918;52.092;5.232;2023-07-31T02:03:42;16.70;99.90
17599;DHT22;8918;52.092;5.232;2023-07-31T02:06:08;16.70;99.90
17599;DHT22;8918;52.092;5.232;2023-07-31T02:08:33;16.60;99.90
17599;DHT22;8918;52.092;5.232;2023-07-31T02:10:59;16.60;99.90
17599;DHT22;8918;52.092;5.232;2023-07-31T02:13:24;16.60;99.90
17599;DHT22;8918;52.092;5.232;2023-07-31T02:15:50;16.50;99.90
17599;DHT22;8918;52.092;5.232;2023-07-31T02:18:16;16.50;99.90
17599;DHT22;8918;52.092;5.232;2023-07-31T02:20:42;16.50;99.90
17599;DHT22;8918;52.092;5.232;2023-07-31T02:23:07;16.50;99.90
17599;DHT22;8918;52.092;5.232;2023-07-31T02:25:33;16.50;99.90
17599;DHT22;8918;52.092;5.232;2023-07-31T02:27:58;16.50;99.90
17599;DHT22;8918;52.092;5.232;2023-07-31T02:30:24;16.40;99.90
17599;DHT22;8918;52.092;5.232;2023-07-31T02:32:49;16.40;99.90
17599;DHT22;8918;52.092;5.232;2023-07-31T02:35:15;16.50;99.90
17599;DHT22;8918;52.092;5.232;2023-07-31T02:37:42;16.50;99.90
17599;DHT22;8918;52.092;5.232;2023-07-31T02:40:08;16.50;99.90
17599;DHT22;8918;52.092;5.232;2023-07-31T02:42:33;16.50;99.90
17599;DHT22;8918;52.092;5.232;2023-07-31T02:44:59;16.50;99.90
17599;DHT22;8918;52.092;5.232;2023-07-31T02:47:24;16.50;99.90
17599;DHT22;8918;52.092;5.232;2023-07-31T02:49:50;16.50;99.90
17599;DHT22;8918;52.092;5.232;2023-07-31T02:52:16;16.50;99.90
17599;DHT22;8918;52.092;5.232;2023-07-31T02:54:41;16.50;99.90
17599;DHT22;8918;52.092;5.232;2023-07-31T02:57:07;16.50;99.90
17599;DHT22;8918;52.092;5.232;2023-07-31T02:59:33;16.50;99.90
17599;DHT22;8918;52.092;5.232;2023-07-31T03:01:58;16.50;99.90
17599;DHT22;8918;52.092;5.232;2023-07-31T03:04:24;16.50;99.90
17599;DHT22;8918;52.092;5.232;2023-07-31T03:06:49;16.50;99.90
17599;DHT22;8918;52.092;5.232;2023-07-31T03:09:15;16.50;99.90
17599;DHT22;8918;52.092;5.232;2023-07-31T03:11:41;16.50;99.90
17599;DHT22;8918;52.092;5.232;2023-07-31T03:14:06;16.50;99.90
17599;DHT22;8918;52.092;5.232;2023-07-31T03:16:32;16.50;99.90
17599;DHT22;8918;52.092;5.232;2023-07-31T03:18:58;16.50;99.90
17599;DHT22;8918;52.092;5.232;2023-07-31T03:21:23;16.50;99.90
17599;DHT22;8918;52.092;5.232;2023-07-31T03:23:49;16.50;99.90
17599;DHT22;8918;52.092;5.232;2023-07-31T03:26:14;16.40;99.90
17599;DHT22;8918;52.092;5.232;2023-07-31T03:28:40;16.40;99.90
17599;DHT22;8918;52.092;5.232;2023-07-31T03:31:06;16.40;99.90
17599;DHT22;8918;52.092;5.232;2023-07-31T03:33:33;16.40;99.90
17599;DHT22;8918;52.092;5.232;2023-07-31T03:35:59;16.40;99.90
17599;DHT22;8918;52.092;5.232;2023-07-31T03:38:24;16.40;99.90
17599;DHT22;8918;52.092;5.232;2023-07-31T03:40:50;16.40;99.90
17599;DHT22;8918;52.092;5.232;2023-07-31T03:43:16;16.40;99.90
17599;DHT22;8918;52.092;5.232;2023-07-31T03:45:41;16.40;99.90
17599;DHT22;8918;52.092;5.232;2023-07-31T03:48:07;16.30;99.90
17599;DHT22;8918;52.092;5.232;2023-07-31T03:50:34;16.30;99.90
17599;DHT22;8918;52.092;5.232;2023-07-31T03:52:59;16.30;99.90
17599;DHT22;8918;52.092;5.232;2023-07-31T03:55:25;16.30;99.90
17599;DHT22;8918;52.092;5.232;2023-07-31T03:57:50;16.30;99.90
17599;DHT22;8918;52.092;5.232;2023-07-31T04:00:16;16.30;99.90
17599;DHT22;8918;52.092;5.232;2023-07-31T04:02:41;16.30;99.90
17599;DHT22;8918;52.092;5.232;2023-07-31T04:05:07;16.30;99.90
17599;DHT22;8918;52.092;5.232;2023-07-31T04:07:33;16.30;99.90
17599;DHT22;8918;52.092;5.232;2023-07-31T04:09:59;16.30;99.90
17599;DHT22;8918;52.092;5.232;2023-07-31T04:12:25;16.30;99.90
17599;DHT22;8918;52.092;5.232;2023-07-31T04:14:50;16.30;99.90
17599;DHT22;8918;52.092;5.232;2023-07-31T04:17:17;16.30;99.90
17599;DHT22;8918;52.092;5.232;2023-07-31T04:19:43;16.20;99.90
17599;DHT22;8918;52.092;5.232;2023-07-31T04:22:08;16.20;99.90
17599;DHT22;8918;52.092;5.232;2023-07-31T04:24:34;16.20;99.90
17599;DHT22;8918;52.092;5.232;2023-07-31T04:27:00;16.20;99.90
17599;DHT22;8918;52.092;5.232;2023-07-31T04:29:25;16.20;99.90
17599;DHT22;8918;52.092;5.232;2023-07-31T04:31:51;16.20;99.90
17599;DHT22;8918;52.092;5.232;2023-07-31T04:34:16;16.20;99.90
17599;DHT22;8918;52.092;5.232;2023-07-31T04:36:42;16.20;99.90
17599;DHT22;8918;52.092;5.232;2023-07-31T04:39:08;16.20;99.90
17599;DHT22;8918;52.092;5.232;2023-07-31T04:41:33;16.10;99.90
17599;DHT22;8918;52.092;5.232;2023-07-31T04:43:59;16.20;99.90
17599;DHT22;8918;52.092;5.232;2023-07-31T04:46:24;16.10;99.90
17599;DHT22;8918;52.092;5.232;2023-07-31T04:48:50;16.10;99.90
17599;DHT22;8918;52.092;5.232;2023-07-31T04:51:16;16.20;99.90
17599;DHT22;8918;52.092;5.232;2023-07-31T04:53:41;16.10;99.90
17599;DHT22;8918;52.092;5.232;2023-07-31T04:56:07;16.10;99.90
17599;DHT22;8918;52.092;5.232;2023-07-31T04:58:32;16.10;99.90
17599;DHT22;8918;52.092;5.232;2023-07-31T05:00:58;16.10;99.90
17599;DHT22;8918;52.092;5.232;2023-07-31T05:03:24;16.10;99.90
17599;DHT22;8918;52.092;5.232;2023-07-31T05:05:50;16.10;99.90
17599;DHT22;8918;52.092;5.232;2023-07-31T05:08:16;16.10;99.90
17599;DHT22;8918;52.092;5.232;2023-07-31T05:10:43;16.00;99.90
17599;DHT22;8918;52.092;5.232;2023-07-31T05:13:09;16.00;99.90
17599;DHT22;8918;52.092;5.232;2023-07-31T05:15:34;16.00;99.90
17599;DHT22;8918;52.092;5.232;2023-07-31T05:18:00;16.00;99.90
17599;DHT22;8918;52.092;5.232;2023-07-31T05:20:25;16.10;99.90
17599;DHT22;8918;52.092;5.232;2023-07-31T05:22:53;16.00;99.90
17599;DHT22;8918;52.092;5.232;2023-07-31T05:25:18;16.10;99.90
17599;DHT22;8918;52.092;5.232;2023-07-31T05:27:44;16.10;99.90
17599;DHT22;8918;52.092;5.232;2023-07-31T05:30:09;16.10;99.90
17599;DHT22;8918;52.092;5.232;2023-07-31T05:32:35;16.10;99.90
17599;DHT22;8918;52.092;5.232;2023-07-31T05:35:01;16.10;99.90
17599;DHT22;8918;52.092;5.232;2023-07-31T05:37:26;16.00;99.90
17599;DHT22;8918;52.092;5.232;2023-07-31T05:39:52;16.00;99.90
17599;DHT22;8918;52.092;5.232;2023-07-31T05:42:18;16.00;99.90
17599;DHT22;8918;52.092;5.232;2023-07-31T05:44:43;16.00;99.90
17599;DHT22;8918;52.092;5.232;2023-07-31T05:47:09;16.00;99.90
17599;DHT22;8918;52.092;5.232;2023-07-31T05:49:35;16.00;99.90
17599;DHT22;8918;52.092;5.232;2023-07-31T05:52:00;15.90;99.90
17599;DHT22;8918;52.092;5.232;2023-07-31T05:54:26;15.90;99.90
17599;DHT22;8918;52.092;5.232;2023-07-31T05:56:51;15.90;99.90
17599;DHT22;8918;52.092;5.232;2023-07-31T05:59:17;15.90;99.90
17599;DHT22;8918;52.092;5.232;2023-07-31T06:01:43;15.90;99.90
17599;DHT22;8918;52.092;5.232;2023-07-31T06:04:08;15.90;99.90
17599;DHT22;8918;52.092;5.232;2023-07-31T06:06:34;15.90;99.90
17599;DHT22;8918;52.092;5.232;2023-07-31T06:08:59;15.90;99.90
17599;DHT22;8918;52.092;5.232;2023-07-31T06:11:25;15.90;99.90
17599;DHT22;8918;52.092;5.232;2023-07-31T06:13:51;15.90;99.90
17599;DHT22;8918;52.092;5.232;2023-07-31T06:16:17;15.90;99.90
17599;DHT22;8918;52.092;5.232;2023-07-31T06:18:42;15.90;99.90
17599;DHT22;8918;52.092;5.232;2023-07-31T06:21:09;16.00;99.90
17599;DHT22;8918;52.092;5.232;2023-07-31T06:23:35;15.90;99.90
17599;DHT22;8918;52.092;5.232;2023-07-31T06:26:00;16.00;99.90
17599;DHT22;8918;52.092;5.232;2023-07-31T06:28:30;16.00;99.90
17599;DHT22;8918;52.092;5.232;2023-07-31T06:30:57;16.00;99.90
17599;DHT22;8918;52.092;5.232;2023-07-31T06:33:23;16.00;99.90
17599;DHT22;8918;52.092;5.232;2023-07-31T06:35:48;16.00;99.90
17599;DHT22;8918;52.092;5.232;2023-07-31T06:38:14;16.10;99.90
17599;DHT22;8918;52.092;5.232;2023-07-31T06:40:40;16.00;99.90
17599;DHT22;8918;52.092;5.232;2023-07-31T06:43:06;16.10;99.90
17599;DHT22;8918;52.092;5.232;2023-07-31T06:45:35;16.10;99.90
17599;DHT22;8918;52.092;5.232;2023-07-31T06:48:01;16.10;99.90
17599;DHT22;8918;52.092;5.232;2023-07-31T06:50:28;16.10;99.90
17599;DHT22;8918;52.092;5.232;2023-07-31T06:52:53;16.20;99.90
17599;DHT22;8918;52.092;5.232;2023-07-31T06:55:20;16.20;99.90
17599;DHT22;8918;52.092;5.232;2023-07-31T06:57:50;16.30;99.90
17599;DHT22;8918;52.092;5.232;2023-07-31T07:00:17;16.30;99.90
17599;DHT22;8918;52.092;5.232;2023-07-31T07:02:42;16.30;99.90
17599;DHT22;8918;52.092;5.232;2023-07-31T07:05:08;16.30;99.90
17599;DHT22;8918;52.092;5.232;2023-07-31T07:07:34;16.40;99.90
17599;DHT22;8918;52.092;5.232;2023-07-31T07:10:00;16.40;99.90
17599;DHT22;8918;52.092;5.232;2023-07-31T07:12:29;16.40;99.90
17599;DHT22;8918;52.092;5.232;2023-07-31T07:14:55;16.40;99.90
17599;DHT22;8918;52.092;5.232;2023-07-31T07:17:24;16.50;99.90
17599;DHT22;8918;52.092;5.232;2023-07-31T07:19:50;16.50;99.90
17599;DHT22;8918;52.092;5.232;2023-07-31T07:22:16;16.50;99.90
17599;DHT22;8918;52.092;5.232;2023-07-31T07:24:42;16.60;99.90
17599;DHT22;8918;52.092;5.232;2023-07-31T07:27:07;16.50;99.90
17599;DHT22;8918;52.092;5.232;2023-07-31T07:29:38;16.50;99.90
17599;DHT22;8918;52.092;5.232;2023-07-31T07:32:04;16.50;99.90
17599;DHT22;8918;52.092;5.232;2023-07-31T07:34:30;16.60;99.90
17599;DHT22;8918;52.092;5.232;2023-07-31T07:36:55;16.60;99.90
17599;DHT22;8918;52.092;5.232;2023-07-31T07:39:21;16.60;99.90
17599;DHT22;8918;52.092;5.232;2023-07-31T07:41:47;16.60;99.90
17599;DHT22;8918;52.092;5.232;2023-07-31T07:44:13;16.60;99.90
17599;DHT22;8918;52.092;5.232;2023-07-31T07:46:39;16.60;99.90
17599;DHT22;8918;52.092;5.232;2023-07-31T07:49:05;16.60;99.90
17599;DHT22;8918;52.092;5.232;2023-07-31T07:51:31;16.70;99.90
17599;DHT22;8918;52.092;5.232;2023-07-31T07:54:00;16.70;99.90
17599;DHT22;8918;52.092;5.232;2023-07-31T07:56:26;16.70;99.90
17599;DHT22;8918;52.092;5.232;2023-07-31T07:58:53;16.80;99.90
17599;DHT22;8918;52.092;5.232;2023-07-31T08:01:19;16.80;99.90
17599;DHT22;8918;52.092;5.232;2023-07-31T08:03:44;16.80;99.90
17599;DHT22;8918;52.092;5.232;2023-07-31T08:06:10;16.80;99.90
17599;DHT22;8918;52.092;5.232;2023-07-31T08:08:36;16.80;99.90
17599;DHT22;8918;52.092;5.232;2023-07-31T08:11:02;16.90;99.90
17599;DHT22;8918;52.092;5.232;2023-07-31T08:13:28;16.90;99.90
17599;DHT22;8918;52.092;5.232;2023-07-31T08:15:53;16.90;99.90
17599;DHT22;8918;52.092;5.232;2023-07-31T08:18:19;16.90;99.90
17599;DHT22;8918;52.092;5.232;2023-07-31T08:20:45;16.90;99.90
17599;DHT22;8918;52.092;5.232;2023-07-31T08:23:11;16.90;99.90
17599;DHT22;8918;52.092;5.232;2023-07-31T08:25:37;16.90;99.90
17599;DHT22;8918;52.092;5.232;2023-07-31T08:28:04;17.00;99.90
17599;DHT22;8918;52.092;5.232;2023-07-31T08:30:30;17.00;99.90
17599;DHT22;8918;52.092;5.232;2023-07-31T08:32:55;17.10;99.90
17599;DHT22;8918;52.092;5.232;2023-07-31T08:35:21;17.10;99.90
17599;DHT22;8918;52.092;5.232;2023-07-31T08:37:47;17.20;99.90
17599;DHT22;8918;52.092;5.232;2023-07-31T08:40:12;17.20;99.90
17599;DHT22;8918;52.092;5.232;2023-07-31T08:42:49;17.20;99.90
17599;DHT22;8918;52.092;5.232;2023-07-31T08:45:17;17.20;99.90
17599;DHT22;8918;52.092;5.232;2023-07-31T08:47:46;17.30;99.90
17599;DHT22;8918;52.092;5.232;2023-07-31T08:50:17;17.30;99.90
17599;DHT22;8918;52.092;5.232;2023-07-31T08:52:43;17.30;99.90
17599;DHT22;8918;52.092;5.232;2023-07-31T08:55:09;17.30;99.90
17599;DHT22;8918;52.092;5.232;2023-07-31T08:57:38;17.30;99.90
17599;DHT22;8918;52.092;5.232;2023-07-31T09:00:08;17.30;99.90
17599;DHT22;8918;52.092;5.232;2023-07-31T09:05:12;17.40;99.90
17599;DHT22;8918;52.092;5.232;2023-07-31T09:07:38;17.40;99.90
17599;DHT22;8918;52.092;5.232;2023-07-31T09:10:05;17.40;99.90
17599;DHT22;8918;52.092;5.232;2023-07-31T09:12:31;17.40;99.90
17599;DHT22;8918;52.092;5.232;2023-07-31T09:14:57;17.40;99.90
17599;DHT22;8918;52.092;5.232;2023-07-31T09:17:31;17.40;99.90
17599;DHT22;8918;52.092;5.232;2023-07-31T09:19:57;17.40;99.90
17599;DHT22;8918;52.092;5.232;2023-07-31T09:22:34;17.50;99.90
17599;DHT22;8918;52.092;5.232;2023-07-31T09:27:58;17.60;99.90
17599;DHT22;8918;52.092;5.232;2023-07-31T09:30:24;17.70;99.90
17599;DHT22;8918;52.092;5.232;2023-07-31T09:32:51;17.70;99.90
17599;DHT22;8918;52.092;5.232;2023-07-31T09:35:30;17.70;99.90
17599;DHT22;8918;52.092;5.232;2023-07-31T09:38:00;17.70;99.90
17599;DHT22;8918;52.092;5.232;2023-07-31T09:40:30;17.70;99.90
17599;DHT22;8918;52.092;5.232;2023-07-31T09:43:04;17.70;99.90
17599;DHT22;8918;52.092;5.232;2023-07-31T09:45:34;17.70;99.90
17599;DHT22;8918;52.092;5.232;2023-07-31T09:48:00;17.70;99.90
17599;DHT22;8918;52.092;5.232;2023-07-31T09:50:25;17.70;99.90
17599;DHT22;8918;52.092;5.232;2023-07-31T09:52:51;17.70;99.90
17599;DHT22;8918;52.092;5.232;2023-07-31T09:55:18;17.70;99.90
17599;DHT22;8918;52.092;5.232;2023-07-31T09:57:47;17.70;99.90
17599;DHT22;8918;52.092;5.232;2023-07-31T10:00:17;17.70;99.90
17599;DHT22;8918;52.092;5.232;2023-07-31T10:02:47;17.80;99.90
17599;DHT22;8918;52.092;5.232;2023-07-31T10:05:14;17.70;99.90
17599;DHT22;8918;52.092;5.232;2023-07-31T10:07:43;17.70;99.90
17599;DHT22;8918;52.092;5.232;2023-07-31T10:10:11;17.70;99.90
17599;DHT22;8918;52.092;5.232;2023-07-31T10:12:37;17.60;99.90
17599;DHT22;8918;52.092;5.232;2023-07-31T10:15:04;17.70;99.90
17599;DHT22;8918;52.092;5.232;2023-07-31T10:17:30;17.70;99.90
17599;DHT22;8918;52.092;5.232;2023-07-31T10:19:58;17.70;99.90
17599;DHT22;8918;52.092;5.232;2023-07-31T10:22:25;17.70;99.90
17599;DHT22;8918;52.092;5.232;2023-07-31T10:24:52;17.70;99.90
17599;DHT22;8918;52.092;5.232;2023-07-31T10:27:19;17.70;99.90
17599;DHT22;8918;52.092;5.232;2023-07-31T10:29:45;17.70;99.90
17599;DHT22;8918;52.092;5.232;2023-07-31T10:32:14;17.70;99.90
17599;DHT22;8918;52.092;5.232;2023-07-31T10:34:41;17.70;99.90
17599;DHT22;8918;52.092;5.232;2023-07-31T10:37:21;17.70;99.90
17599;DHT22;8918;52.092;5.232;2023-07-31T10:40:03;17.70;99.90
17599;DHT22;8918;52.092;5.232;2023-07-31T10:42:30;17.70;99.90
17599;DHT22;8918;52.092;5.232;2023-07-31T10:44:58;17.70;99.90
17599;DHT22;8918;52.092;5.232;2023-07-31T10:47:24;17.70;99.90
17599;DHT22;8918;52.092;5.232;2023-07-31T10:49:50;17.80;99.90
17599;DHT22;8918;52.092;5.232;2023-07-31T10:52:20;17.80;99.90
17599;DHT22;8918;52.092;5.232;2023-07-31T10:54:49;17.80;99.90
17599;DHT22;8918;52.092;5.232;2023-07-31T10:57:22;17.80;99.90
17599;DHT22;8918;52.092;5.232;2023-07-31T10:59:50;17.80;99.90
17599;DHT22;8918;52.092;5.232;2023-07-31T11:02:24;17.80;99.90
17599;DHT22;8918;52.092;5.232;2023-07-31T11:05:06;17.90;99.90
17599;DHT22;8918;52.092;5.232;2023-07-31T11:07:48;17.90;99.90
17599;DHT22;8918;52.092;5.232;2023-07-31T11:10:18;17.90;99.90
17599;DHT22;8918;52.092;5.232;2023-07-31T11:12:45;17.90;99.90
17599;DHT22;8918;52.092;5.232;2023-07-31T11:15:12;18.00;99.90
17599;DHT22;8918;52.092;5.232;2023-07-31T11:17:40;17.90;99.90
17599;DHT22;8918;52.092;5.232;2023-07-31T11:20:07;17.90;99.90
17599;DHT22;8918;52.092;5.232;2023-07-31T11:22:35;17.90;99.90
17599;DHT22;8918;52.092;5.232;2023-07-31T11:25:02;17.90;99.90
17599;DHT22;8918;52.092;5.232;2023-07-31T11:27:28;17.90;99.90
17599;DHT22;8918;52.092;5.232;2023-07-31T11:30:00;18.00;99.90
17599;DHT22;8918;52.092;5.232;2023-07-31T11:32:27;17.90;99.90
17599;DHT22;8918;52.092;5.232;2023-07-31T11:34:55;17.90;99.90
17599;DHT22;8918;52.092;5.232;2023-07-31T11:37:22;18.00;99.90
17599;DHT22;8918;52.092;5.232;2023-07-31T11:40:00;17.90;99.90
17599;DHT22;8918;52.092;5.232;2023-07-31T11:42:26;18.00;99.90
17599;DHT22;8918;52.092;5.232;2023-07-31T11:44:52;17.90;99.90
17599;DHT22;8918;52.092;5.232;2023-07-31T11:47:17;17.90;99.90
17599;DHT22;8918;52.092;5.232;2023-07-31T11:49:43;17.90;99.90
17599;DHT22;8918;52.092;5.232;2023-07-31T11:52:10;17.90;99.90
17599;DHT22;8918;52.092;5.232;2023-07-31T11:54:37;18.00;99.90
17599;DHT22;8918;52.092;5.232;2023-07-31T11:57:04;17.90;99.90
17599;DHT22;8918;52.092;5.232;2023-07-31T11:59:30;18.00;99.90
17599;DHT22;8918;52.092;5.232;2023-07-31T12:01:56;17.90;99.90
17599;DHT22;8918;52.092;5.232;2023-07-31T12:04:22;17.90;99.90
17599;DHT22;8918;52.092;5.232;2023-07-31T12:06:48;18.00;99.90
17599;DHT22;8918;52.092;5.232;2023-07-31T12:09:15;18.00;99.90
17599;DHT22;8918;52.092;5.232;2023-07-31T12:11:47;18.00;99.90
17599;DHT22;8918;52.092;5.232;2023-07-31T12:14:27;18.00;99.90
17599;DHT22;8918;52.092;5.232;2023-07-31T12:16:58;18.10;99.90
17599;DHT22;8918;52.092;5.232;2023-07-31T12:19:25;18.00;99.90
17599;DHT22;8918;52.092;5.232;2023-07-31T12:21:55;18.00;99.90
17599;DHT22;8918;52.092;5.232;2023-07-31T12:24:21;18.00;99.90
17599;DHT22;8918;52.092;5.232;2023-07-31T12:26:48;18.10;99.90
17599;DHT22;8918;52.092;5.232;2023-07-31T12:29:14;18.10;99.90
17599;DHT22;8918;52.092;5.232;2023-07-31T12:31:41;18.10;99.90
17599;DHT22;8918;52.092;5.232;2023-07-31T12:34:16;18.10;99.90
17599;DHT22;8918;52.092;5.232;2023-07-31T12:36:43;18.10;99.90
17599;DHT22;8918;52.092;5.232;2023-07-31T12:39:09;18.10;99.90
17599;DHT22;8918;52.092;5.232;2023-07-31T12:41:34;18.20;99.90
17599;DHT22;8918;52.092;5.232;2023-07-31T12:44:00;18.20;99.90
17599;DHT22;8918;52.092;5.232;2023-07-31T12:46:26;18.20;99.90
17599;DHT22;8918;52.092;5.232;2023-07-31T12:48:51;18.20;99.90
17599;DHT22;8918;52.092;5.232;2023-07-31T12:51:17;18.20;99.90
17599;DHT22;8918;52.092;5.232;2023-07-31T12:53:42;18.20;99.90
17599;DHT22;8918;52.092;5.232;2023-07-31T12:56:08;18.20;99.90
17599;DHT22;8918;52.092;5.232;2023-07-31T12:58:34;18.20;99.90
17599;DHT22;8918;52.092;5.232;2023-07-31T13:00:59;18.10;99.90
17599;DHT22;8918;52.092;5.232;2023-07-31T13:03:25;18.10;99.90
17599;DHT22;8918;52.092;5.232;2023-07-31T13:05:51;18.20;99.90
17599;DHT22;8918;52.092;5.232;2023-07-31T13:08:17;18.10;99.90
17599;DHT22;8918;52.092;5.232;2023-07-31T13:10:43;18.20;99.90
17599;DHT22;8918;52.092;5.232;2023-07-31T13:13:09;18.30;99.90
17599;DHT22;8918;52.092;5.232;2023-07-31T13:15:35;18.30;99.90
17599;DHT22;8918;52.092;5.232;2023-07-31T13:18:01;18.40;99.90
17599;DHT22;8918;52.092;5.232;2023-07-31T13:20:27;18.40;99.90
17599;DHT22;8918;52.092;5.232;2023-07-31T13:22:52;18.30;99.90
17599;DHT22;8918;52.092;5.232;2023-07-31T13:25:18;18.30;99.90
17599;DHT22;8918;52.092;5.232;2023-07-31T13:27:43;18.30;99.90
17599;DHT22;8918;52.092;5.232;2023-07-31T13:30:09;18.30;99.90
17599;DHT22;8918;52.092;5.232;2023-07-31T13:32:35;18.30;99.90
17599;DHT22;8918;52.092;5.232;2023-07-31T13:35:07;18.30;99.90
17599;DHT22;8918;52.092;5.232;2023-07-31T13:37:34;18.30;99.90
17599;DHT22;8918;52.092;5.232;2023-07-31T13:39:59;18.30;99.90
17599;DHT22;8918;52.092;5.232;2023-07-31T13:42:25;18.30;99.90
17599;DHT22;8918;52.092;5.232;2023-07-31T13:44:51;18.40;99.90
17599;DHT22;8918;52.092;5.232;2023-07-31T13:47:17;18.40;99.90
17599;DHT22;8918;52.092;5.232;2023-07-31T13:49:43;18.30;99.90
17599;DHT22;8918;52.092;5.232;2023-07-31T13:52:09;18.40;99.90
17599;DHT22;8918;52.092;5.232;2023-07-31T13:54:34;18.40;99.90
17599;DHT22;8918;52.092;5.232;2023-07-31T13:57:00;18.40;99.90
17599;DHT22;8918;52.092;5.232;2023-07-31T13:59:26;18.40;99.90
17599;DHT22;8918;52.092;5.232;2023-07-31T14:01:52;18.40;99.90
17599;DHT22;8918;52.092;5.232;2023-07-31T14:04:17;18.40;99.90
17599;DHT22;8918;52.092;5.232;2023-07-31T14:06:43;18.40;99.90
17599;DHT22;8918;52.092;5.232;2023-07-31T14:09:09;18.40;99.90
17599;DHT22;8918;52.092;5.232;2023-07-31T14:11:35;18.40;99.90
17599;DHT22;8918;52.092;5.232;2023-07-31T14:14:01;18.40;99.90
17599;DHT22;8918;52.092;5.232;2023-07-31T14:16:30;18.40;99.90
17599;DHT22;8918;52.092;5.232;2023-07-31T14:18:55;18.50;99.90
17599;DHT22;8918;52.092;5.232;2023-07-31T14:21:21;18.40;99.90
17599;DHT22;8918;52.092;5.232;2023-07-31T14:23:46;18.50;99.90
17599;DHT22;8918;52.092;5.232;2023-07-31T14:26:12;18.50;99.90
17599;DHT22;8918;52.092;5.232;2023-07-31T14:28:38;18.50;99.90
17599;DHT22;8918;52.092;5.232;2023-07-31T14:31:04;18.40;99.90
17599;DHT22;8918;52.092;5.232;2023-07-31T14:33:29;18.40;99.90
17599;DHT22;8918;52.092;5.232;2023-07-31T14:35:55;18.40;99.90
17599;DHT22;8918;52.092;5.232;2023-07-31T14:38:20;18.30;99.90
17599;DHT22;8918;52.092;5.232;2023-07-31T14:40:46;18.30;99.90
17599;DHT22;8918;52.092;5.232;2023-07-31T14:43:12;18.30;99.90
17599;DHT22;8918;52.092;5.232;2023-07-31T14:45:37;18.30;99.90
17599;DHT22;8918;52.092;5.232;2023-07-31T14:48:03;18.30;99.90
17599;DHT22;8918;52.092;5.232;2023-07-31T14:50:29;18.30;99.90
17599;DHT22;8918;52.092;5.232;2023-07-31T14:52:54;18.30;99.90
17599;DHT22;8918;52.092;5.232;2023-07-31T14:55:20;18.30;99.90
17599;DHT22;8918;52.092;5.232;2023-07-31T14:57:46;18.20;99.90
17599;DHT22;8918;52.092;5.232;2023-07-31T15:00:12;18.20;99.90
17599;DHT22;8918;52.092;5.232;2023-07-31T15:02:38;18.20;99.90
17599;DHT22;8918;52.092;5.232;2023-07-31T15:05:04;18.20;99.90
17599;DHT22;8918;52.092;5.232;2023-07-31T15:07:30;18.10;99.90
17599;DHT22;8918;52.092;5.232;2023-07-31T15:09:56;18.10;99.90
17599;DHT22;8918;52.092;5.232;2023-07-31T15:12:21;18.10;99.90
17599;DHT22;8918;52.092;5.232;2023-07-31T15:14:49;18.10;99.90
17599;DHT22;8918;52.092;5.232;2023-07-31T15:17:15;18.10;99.90
17599;DHT22;8918;52.092;5.232;2023-07-31T15:19:40;18.10;99.90
17599;DHT22;8918;52.092;5.232;2023-07-31T15:22:06;18.10;99.90
17599;DHT22;8918;52.092;5.232;2023-07-31T15:24:32;18.10;99.90
17599;DHT22;8918;52.092;5.232;2023-07-31T15:26:57;18.10;99.90
17599;DHT22;8918;52.092;5.232;2023-07-31T15:29:23;18.10;99.90
17599;DHT22;8918;52.092;5.232;2023-07-31T15:31:49;18.10;99.90
17599;DHT22;8918;52.092;5.232;2023-07-31T15:34:15;18.10;99.90
17599;DHT22;8918;52.092;5.232;2023-07-31T15:36:41;18.10;99.90
17599;DHT22;8918;52.092;5.232;2023-07-31T15:39:07;18.00;99.90
17599;DHT22;8918;52.092;5.232;2023-07-31T15:41:36;18.10;99.90
17599;DHT22;8918;52.092;5.232;2023-07-31T15:44:02;18.00;99.90
17599;DHT22;8918;52.092;5.232;2023-07-31T15:46:28;18.00;99.90
17599;DHT22;8918;52.092;5.232;2023-07-31T15:48:54;18.00;99.90
17599;DHT22;8918;52.092;5.232;2023-07-31T15:51:19;18.00;99.90